DLH1477 EKCH-EDDF
Flight info
| Callsign | DLH1477 |
|---|---|
| Flight time | N/A |
| Altitude | 40000 |
| Route | NEXEN2A NEXEN T503 GIMRU DCT MICOS DCT RIMET/N0479F310 T157 KOKEB/N0421F230 T157 KERAX KERAX5A/25L |
| Aircraft | A346/H-SDE2E3FGHIJ3J4J5M1RWXY/LB1D1 |
Departure
| Time | N/A |
|---|---|
| Airport | Copenhagen Kastrup Airport (EKCH) |
Arrival
| Time | 2026-05-06 19:42 |
|---|---|
| Airport | Frankfurt Main Airport (EDDF) |
| Time | Latitude | Longitude | Altitude | Speed | Heading |
|---|---|---|---|---|---|
| 2026-05-06 19:21 | 50.41097 | 9.24654 | 9883 ft | 352 kts | 251° |
| 2026-05-06 19:21 | 50.40611 | 9.22491 | 9776 ft | 343 kts | 249° |
| 2026-05-06 19:21 | 50.39813 | 9.19043 | 9570 ft | 331 kts | 249° |
| 2026-05-06 19:21 | 50.39042 | 9.15704 | 9342 ft | 319 kts | 249° |
| 2026-05-06 19:22 | 50.38292 | 9.12462 | 9139 ft | 309 kts | 249° |
| 2026-05-06 19:22 | 50.37570 | 9.09347 | 8931 ft | 299 kts | 249° |
| 2026-05-06 19:22 | 50.36871 | 9.06338 | 8733 ft | 289 kts | 249° |
| 2026-05-06 19:22 | 50.36193 | 9.03424 | 8545 ft | 279 kts | 249° |
| 2026-05-06 19:23 | 50.35854 | 9.01971 | 8455 ft | 275 kts | 249° |
| 2026-05-06 19:23 | 50.35207 | 8.99199 | 8217 ft | 268 kts | 249° |
| 2026-05-06 19:23 | 50.34569 | 8.96464 | 7872 ft | 266 kts | 249° |
| 2026-05-06 19:23 | 50.33927 | 8.93790 | 7506 ft | 265 kts | 245° |
| 2026-05-06 19:24 | 50.33008 | 8.91302 | 7144 ft | 264 kts | 233° |
| 2026-05-06 19:24 | 50.31767 | 8.89188 | 6833 ft | 261 kts | 221° |
| 2026-05-06 19:24 | 50.30326 | 8.87591 | 6809 ft | 247 kts | 210° |
| 2026-05-06 19:24 | 50.28797 | 8.86533 | 6803 ft | 234 kts | 200° |
| 2026-05-06 19:25 | 50.27229 | 8.85985 | 6643 ft | 228 kts | 189° |
| 2026-05-06 19:25 | 50.25662 | 8.85924 | 6477 ft | 224 kts | 178° |
| 2026-05-06 19:25 | 50.24127 | 8.86327 | 6210 ft | 225 kts | 167° |
| 2026-05-06 19:25 | 50.22660 | 8.87182 | 5952 ft | 226 kts | 156° |
| 2026-05-06 19:26 | 50.21341 | 8.88443 | 5784 ft | 221 kts | 146° |
| 2026-05-06 19:26 | 50.20204 | 8.90051 | 5566 ft | 220 kts | 135° |
| 2026-05-06 19:26 | 50.19568 | 8.91284 | 5393 ft | 221 kts | 127° |
| 2026-05-06 19:26 | 50.18803 | 8.93368 | 5120 ft | 222 kts | 116° |
| 2026-05-06 19:27 | 50.18425 | 8.96469 | 4708 ft | 225 kts | 74° |
| 2026-05-06 19:27 | 50.19190 | 8.98561 | 4446 ft | 221 kts | 50° |
| 2026-05-06 19:27 | 50.20171 | 9.00403 | 4180 ft | 221 kts | 49° |
| 2026-05-06 19:27 | 50.21175 | 9.02205 | 3978 ft | 217 kts | 38° |
| 2026-05-06 19:28 | 50.22022 | 9.02994 | 3971 ft | 214 kts | 14° |
| 2026-05-06 19:28 | 50.23471 | 9.03043 | 3975 ft | 208 kts | 337° |
| 2026-05-06 19:28 | 50.24620 | 9.01777 | 3976 ft | 203 kts | 301° |
| 2026-05-06 19:28 | 50.25034 | 8.99721 | 3989 ft | 201 kts | 265° |
| 2026-05-06 19:29 | 50.24560 | 8.97687 | 3997 ft | 203 kts | 234° |
| 2026-05-06 19:29 | 50.23606 | 8.96056 | 4015 ft | 203 kts | 225° |
| 2026-05-06 19:29 | 50.22607 | 8.94614 | 4022 ft | 187 kts | 224° |
| 2026-05-06 19:29 | 50.21609 | 8.93224 | 4030 ft | 201 kts | 222° |
| 2026-05-06 19:30 | 50.20702 | 8.91558 | 3984 ft | 202 kts | 247° |
| 2026-05-06 19:30 | 50.20594 | 8.89411 | 3985 ft | 203 kts | 284° |
| 2026-05-06 19:30 | 50.21367 | 8.87585 | 3989 ft | 207 kts | 320° |
| 2026-05-06 19:30 | 50.22721 | 8.86837 | 3993 ft | 212 kts | 356° |
| 2026-05-06 19:31 | 50.24133 | 8.87501 | 3990 ft | 218 kts | 32° |
| 2026-05-06 19:31 | 50.25067 | 8.89367 | 3991 ft | 222 kts | 69° |
| 2026-05-06 19:31 | 50.24920 | 8.94118 | 3996 ft | 221 kts | 102° |
| 2026-05-06 19:32 | 50.24587 | 8.96487 | 3995 ft | 221 kts | 103° |
| 2026-05-06 19:32 | 50.24248 | 8.98845 | 3990 ft | 222 kts | 103° |
| 2026-05-06 19:32 | 50.23907 | 9.01202 | 3982 ft | 221 kts | 103° |
| 2026-05-06 19:32 | 50.23568 | 9.03521 | 3981 ft | 222 kts | 103° |
| 2026-05-06 19:33 | 50.23223 | 9.05877 | 3990 ft | 221 kts | 103° |
| 2026-05-06 19:33 | 50.22880 | 9.08240 | 3979 ft | 222 kts | 103° |
| 2026-05-06 19:33 | 50.22534 | 9.10591 | 3978 ft | 222 kts | 103° |
| 2026-05-06 19:33 | 50.22084 | 9.12928 | 3989 ft | 231 kts | 116° |
| 2026-05-06 19:34 | 50.21046 | 9.14834 | 3970 ft | 233 kts | 148° |
| 2026-05-06 19:34 | 50.19526 | 9.15549 | 3980 ft | 228 kts | 182° |
| 2026-05-06 19:34 | 50.18043 | 9.14859 | 3978 ft | 223 kts | 215° |
| 2026-05-06 19:34 | 50.16974 | 9.13167 | 4005 ft | 217 kts | 236° |
| 2026-05-06 19:35 | 50.16284 | 9.11097 | 3985 ft | 214 kts | 250° |
| 2026-05-06 19:35 | 50.15825 | 9.08880 | 3987 ft | 214 kts | 254° |
| 2026-05-06 19:35 | 50.15397 | 9.06643 | 3985 ft | 214 kts | 253° |
| 2026-05-06 19:35 | 50.14948 | 9.04428 | 3989 ft | 214 kts | 252° |
| 2026-05-06 19:36 | 50.14470 | 9.02218 | 3989 ft | 215 kts | 251° |
| 2026-05-06 19:36 | 50.13972 | 9.00025 | 3998 ft | 214 kts | 250° |
| 2026-05-06 19:36 | 50.13461 | 8.97854 | 3999 ft | 214 kts | 250° |
| 2026-05-06 19:36 | 50.12936 | 8.95671 | 3997 ft | 214 kts | 250° |
| 2026-05-06 19:37 | 50.12409 | 8.93499 | 4006 ft | 214 kts | 250° |
| 2026-05-06 19:37 | 50.11876 | 8.91324 | 4001 ft | 214 kts | 250° |
| 2026-05-06 19:37 | 50.11353 | 8.89186 | 4002 ft | 208 kts | 250° |
| 2026-05-06 19:37 | 50.10864 | 8.87190 | 3976 ft | 186 kts | 250° |
| 2026-05-06 19:38 | 50.10427 | 8.85398 | 3949 ft | 172 kts | 250° |
| 2026-05-06 19:38 | 50.10004 | 8.83655 | 3798 ft | 171 kts | 250° |
| 2026-05-06 19:38 | 50.09585 | 8.81928 | 3565 ft | 170 kts | 251° |
| 2026-05-06 19:38 | 50.09167 | 8.80198 | 3341 ft | 171 kts | 251° |
| 2026-05-06 19:39 | 50.08748 | 8.78461 | 3115 ft | 171 kts | 251° |
| 2026-05-06 19:39 | 50.08332 | 8.76736 | 2877 ft | 169 kts | 252° |
| 2026-05-06 19:39 | 50.07918 | 8.75013 | 2646 ft | 169 kts | 252° |
| 2026-05-06 19:39 | 50.07505 | 8.73297 | 2424 ft | 169 kts | 252° |
| 2026-05-06 19:40 | 50.07100 | 8.71608 | 2197 ft | 168 kts | 253° |
| 2026-05-06 19:40 | 50.06691 | 8.69903 | 1954 ft | 160 kts | 252° |
| 2026-05-06 19:40 | 50.06317 | 8.68347 | 1681 ft | 153 kts | 252° |
| 2026-05-06 19:40 | 50.05919 | 8.66835 | 1349 ft | 147 kts | 250° |
| 2026-05-06 19:41 | 50.05566 | 8.65341 | 1186 ft | 147 kts | 255° |
| 2026-05-06 19:41 | 50.05252 | 8.63826 | 998 ft | 147 kts | 253° |
| 2026-05-06 19:41 | 50.04893 | 8.62337 | 821 ft | 147 kts | 251° |
| 2026-05-06 19:41 | 50.04524 | 8.60842 | 632 ft | 146 kts | 252° |
| 2026-05-06 19:42 | 50.04169 | 8.59352 | 462 ft | 146 kts | 251° |
| 2026-05-06 19:42 | 50.03820 | 8.57873 | 361 ft | 135 kts | 248° |
| 2026-05-06 19:42 | 50.03569 | 8.56829 | 359 ft | 71 kts | 250° |
| 2026-05-06 19:42 | 50.03477 | 8.56435 | 359 ft | 7 kts | 250° |
| 2026-05-06 19:43 | 50.03475 | 8.56425 | 361 ft | 2 kts | 250° |
| 2026-05-06 19:43 | 50.03466 | 8.56385 | 360 ft | 6 kts | 250° |
| 2026-05-06 19:43 | 50.03448 | 8.56308 | 362 ft | 9 kts | 250° |
| 2026-05-06 19:43 | 50.03434 | 8.56248 | 362 ft | 1 kts | 252° |
| 2026-05-06 19:44 | 50.03431 | 8.56228 | 361 ft | 3 kts | 265° |
| 2026-05-06 19:44 | 50.03432 | 8.56178 | 360 ft | 6 kts | 272° |
| 2026-05-06 19:44 | 50.03436 | 8.56086 | 361 ft | 10 kts | 274° |
| 2026-05-06 19:44 | 50.03447 | 8.55951 | 361 ft | 15 kts | 279° |
| 2026-05-06 19:45 | 50.03466 | 8.55774 | 360 ft | 18 kts | 279° |
| 2026-05-06 19:45 | 50.03490 | 8.55585 | 354 ft | 17 kts | 290° |
| 2026-05-06 19:45 | 50.03586 | 8.55522 | 357 ft | 10 kts | 11° |
| 2026-05-06 19:45 | 50.03595 | 8.55524 | 359 ft | 2 kts | 9° |
| 2026-05-06 19:46 | 50.03596 | 8.55524 | 359 ft | 0 kts | 9° |
| 2026-05-06 19:46 | 50.03604 | 8.55526 | 359 ft | 0 kts | 8° |
| 2026-05-06 19:49 | 50.03605 | 8.55527 | 359 ft | 1 kts | 8° |
| 2026-05-06 19:49 | 50.03626 | 8.55531 | 359 ft | 5 kts | 8° |
| 2026-05-06 19:49 | 50.03675 | 8.55542 | 359 ft | 9 kts | 8° |
| 2026-05-06 19:49 | 50.03752 | 8.55549 | 360 ft | 13 kts | 355° |
| 2026-05-06 19:50 | 50.03847 | 8.55512 | 357 ft | 11 kts | 342° |
| 2026-05-06 19:50 | 50.03930 | 8.55502 | 359 ft | 13 kts | 32° |
| 2026-05-06 19:50 | 50.03980 | 8.55654 | 358 ft | 18 kts | 69° |
| 2026-05-06 19:50 | 50.04028 | 8.55856 | 360 ft | 22 kts | 70° |
| 2026-05-06 19:51 | 50.04075 | 8.56059 | 361 ft | 19 kts | 70° |
| 2026-05-06 19:51 | 50.04116 | 8.56230 | 360 ft | 18 kts | 70° |
| 2026-05-06 19:51 | 50.04163 | 8.56430 | 360 ft | 21 kts | 70° |
| 2026-05-06 19:51 | 50.04217 | 8.56659 | 362 ft | 18 kts | 70° |
| 2026-05-06 19:52 | 50.04252 | 8.56776 | 362 ft | 8 kts | 42° |
| 2026-05-06 19:52 | 50.04273 | 8.56795 | 362 ft | 0 kts | 23° |
| 2026-05-06 19:54 | 50.04283 | 8.56801 | 362 ft | 4 kts | 21° |
| 2026-05-06 19:54 | 50.04325 | 8.56821 | 359 ft | 9 kts | 13° |
| 2026-05-06 19:54 | 50.04404 | 8.56845 | 361 ft | 14 kts | 8° |
| 2026-05-06 19:55 | 50.04484 | 8.56859 | 361 ft | 9 kts | 348° |
| 2026-05-06 19:55 | 50.04534 | 8.56775 | 362 ft | 9 kts | 300° |
| 2026-05-06 19:55 | 50.04538 | 8.56765 | 361 ft | 2 kts | 295° |
| 2026-05-06 19:55 | 50.04539 | 8.56761 | 361 ft | 0 kts | 295° |